createdAt,value
2019-02-11T00:00:24.782Z,2.63
2019-02-11T00:02:54.585Z,1.73
2019-02-11T00:05:22.655Z,2.07
2019-02-11T00:07:50.807Z,1.30
2019-02-11T00:10:18.824Z,1.30
2019-02-11T00:12:46.764Z,1.57
2019-02-11T00:15:14.751Z,1.47
2019-02-11T00:17:42.784Z,1.20
2019-02-11T00:20:10.632Z,1.70
2019-02-11T00:22:38.727Z,1.20
2019-02-11T00:25:06.870Z,1.40
2019-02-11T00:27:34.871Z,1.33
2019-02-11T00:30:02.760Z,1.23
2019-02-11T00:32:30.839Z,1.10
2019-02-11T00:34:58.904Z,1.17
2019-02-11T00:37:26.774Z,1.37
2019-02-11T00:39:54.375Z,1.80
2019-02-11T00:42:22.273Z,0.70
2019-02-11T00:44:50.357Z,0.80
2019-02-11T00:47:18.691Z,0.90
2019-02-11T00:49:46.689Z,0.80
2019-02-11T00:52:14.597Z,1.00
2019-02-11T00:54:42.649Z,0.83
2019-02-11T00:57:10.616Z,0.80
2019-02-11T00:59:38.582Z,0.73
2019-02-11T01:02:06.689Z,0.90
2019-02-11T01:04:34.796Z,0.90
2019-02-11T01:07:02.665Z,0.80
2019-02-11T01:09:30.673Z,0.60
2019-02-11T01:11:58.533Z,0.80
2019-02-11T01:14:26.623Z,0.70
2019-02-11T01:16:54.622Z,1.53
2019-02-11T01:19:24.094Z,0.70
2019-02-11T01:21:52.099Z,0.73
2019-02-11T01:24:19.998Z,0.90
2019-02-11T01:26:48.033Z,0.60
2019-02-11T01:29:15.804Z,0.70
2019-02-11T01:31:43.736Z,1.00
2019-02-11T01:34:11.791Z,0.70
2019-02-11T01:36:39.714Z,1.03
2019-02-11T01:39:07.693Z,0.70
2019-02-11T01:41:36.883Z,0.83
2019-02-11T01:44:04.648Z,1.40
2019-02-11T01:46:32.488Z,0.83
2019-02-11T01:49:00.655Z,0.90
2019-02-11T01:51:28.750Z,0.80
2019-02-11T01:53:56.981Z,0.80
2019-02-11T01:56:25.182Z,0.80
2019-02-11T01:58:53.199Z,0.90
2019-02-11T02:01:21.154Z,1.30
2019-02-11T02:03:49.335Z,0.70
2019-02-11T02:06:19.474Z,0.80
2019-02-11T02:08:47.433Z,0.80
2019-02-11T02:11:15.594Z,0.70
2019-02-11T02:13:45.114Z,1.00
2019-02-11T02:16:13.222Z,0.70
2019-02-11T02:18:41.244Z,0.90
2019-02-11T02:21:09.044Z,0.80
2019-02-11T02:23:36.906Z,1.33
2019-02-11T02:26:05.013Z,0.90
2019-02-11T02:28:33.105Z,1.17
2019-02-11T02:31:01.249Z,0.80
2019-02-11T02:33:29.419Z,1.00
2019-02-11T02:35:57.548Z,0.80
2019-02-11T02:38:25.523Z,1.23
2019-02-11T02:40:53.650Z,1.10
2019-02-11T02:43:22.616Z,1.30
2019-02-11T02:45:50.690Z,1.30
2019-02-11T02:48:18.698Z,1.00
2019-02-11T02:50:46.695Z,2.40
2019-02-11T02:53:14.915Z,1.30
2019-02-11T02:55:42.948Z,0.90
2019-02-11T02:58:10.771Z,0.80
2019-02-11T03:00:39.056Z,0.90
2019-02-11T03:03:07.081Z,1.10
2019-02-11T03:05:35.191Z,1.20
2019-02-11T03:08:03.146Z,0.97
2019-02-11T03:10:31.480Z,1.37
2019-02-11T03:12:59.650Z,1.03
2019-02-11T03:15:27.582Z,1.30
2019-02-11T03:17:55.413Z,1.70
2019-02-11T03:20:23.356Z,0.90
2019-02-11T03:22:51.220Z,1.00
2019-02-11T03:25:19.028Z,1.13
2019-02-11T03:27:46.916Z,1.10
2019-02-11T03:30:14.855Z,1.00
2019-02-11T03:32:42.779Z,0.90
2019-02-11T03:35:10.877Z,0.93
2019-02-11T03:37:38.759Z,0.87
2019-02-11T03:40:06.962Z,0.93
2019-02-11T03:42:34.713Z,1.30
2019-02-11T03:45:02.680Z,0.93
2019-02-11T03:47:30.474Z,1.00
2019-02-11T03:49:58.525Z,1.10
2019-02-11T03:52:26.532Z,1.00
2019-02-11T03:54:54.550Z,2.20
2019-02-11T03:57:22.935Z,0.90
2019-02-11T03:59:50.999Z,0.93
2019-02-11T04:02:19.034Z,1.30
2019-02-11T04:04:47.157Z,1.00
2019-02-11T04:07:15.097Z,1.27
2019-02-11T04:09:43.185Z,1.23
2019-02-11T04:12:11.395Z,1.40
2019-02-11T04:14:39.328Z,1.40
2019-02-11T04:17:07.230Z,1.50
2019-02-11T04:19:35.150Z,1.20
2019-02-11T04:22:07.108Z,1.67
2019-02-11T04:24:35.008Z,1.60
2019-02-11T04:27:03.275Z,1.30
2019-02-11T04:29:31.265Z,1.30
2019-02-11T04:31:59.113Z,1.13
2019-02-11T04:34:27.182Z,1.10
2019-02-11T04:36:55.249Z,1.53
2019-02-11T04:39:23.387Z,1.00
2019-02-11T04:41:51.438Z,1.00
2019-02-11T04:44:19.541Z,0.93
2019-02-11T04:46:47.589Z,0.90
2019-02-11T04:49:15.643Z,1.00
2019-02-11T04:51:43.495Z,1.17
2019-02-11T04:54:11.461Z,1.00
2019-02-11T04:56:39.467Z,1.10
2019-02-11T04:59:07.496Z,0.97
2019-02-11T05:01:35.373Z,1.20
2019-02-11T05:04:03.553Z,1.00
2019-02-11T05:06:31.451Z,1.83
2019-02-11T05:08:59.580Z,1.50
2019-02-11T05:11:27.355Z,1.23
2019-02-11T05:13:55.319Z,2.27
2019-02-11T05:16:23.088Z,1.83
2019-02-11T05:18:51.052Z,1.50
2019-02-11T05:21:18.940Z,1.50
2019-02-11T05:23:46.897Z,1.40
2019-02-11T05:26:14.971Z,1.57
2019-02-11T05:28:43.030Z,1.57
2019-02-11T05:31:11.194Z,2.23
2019-02-11T05:33:39.307Z,3.00
2019-02-11T05:36:07.622Z,2.47
2019-02-11T05:38:35.625Z,1.90
2019-02-11T05:41:03.658Z,2.00
2019-02-11T05:43:32.740Z,1.80
2019-02-11T05:46:00.715Z,2.33
2019-02-11T05:48:28.882Z,3.33
2019-02-11T05:50:56.934Z,2.73
2019-02-11T05:53:25.207Z,3.27
2019-02-11T05:55:53.275Z,4.30
2019-02-11T05:58:21.364Z,4.93
2019-02-11T06:00:52.364Z,8.43
2019-02-11T06:03:20.386Z,7.20
2019-02-11T06:05:48.715Z,6.10
2019-02-11T06:08:16.719Z,6.43
2019-02-11T06:10:45.009Z,6.57
2019-02-11T06:13:12.909Z,5.67
2019-02-11T06:15:40.649Z,6.77
2019-02-11T06:18:08.291Z,8.30
2019-02-11T06:20:35.950Z,9.50
2019-02-11T06:23:03.585Z,9.40
2019-02-11T06:25:31.303Z,9.27
2019-02-11T06:27:59.028Z,6.93
2019-02-11T06:30:27.650Z,6.93
2019-02-11T06:32:55.420Z,5.47
2019-02-11T06:35:23.116Z,7.80
2019-02-11T06:37:50.649Z,6.53
2019-02-11T06:40:18.262Z,5.90
2019-02-11T06:42:45.822Z,6.57
2019-02-11T06:45:13.631Z,7.97
2019-02-11T06:47:41.266Z,7.30
2019-02-11T06:50:09.808Z,10.30
2019-02-11T06:52:37.336Z,9.23
2019-02-11T06:55:06.133Z,8.07
2019-02-11T06:57:33.787Z,9.60
2019-02-11T07:00:01.745Z,11.90
2019-02-11T07:02:29.397Z,8.90
2019-02-11T07:04:57.070Z,11.87
2019-02-11T07:07:24.746Z,10.63
2019-02-11T07:09:52.579Z,10.43
2019-02-11T07:12:20.477Z,7.90
2019-02-11T07:14:48.145Z,7.87
2019-02-11T07:17:15.870Z,8.97
2019-02-11T07:19:43.567Z,9.40
2019-02-11T07:22:11.331Z,7.47
2019-02-11T07:24:40.197Z,10.23
2019-02-11T07:27:07.955Z,8.67
2019-02-11T07:29:35.562Z,9.13
2019-02-11T07:32:03.236Z,6.10
2019-02-11T07:34:30.918Z,6.40
2019-02-11T07:36:58.593Z,5.23
2019-02-11T07:39:26.239Z,10.20
2019-02-11T07:42:25.277Z,7.33
2019-02-11T07:44:57.941Z,5.77
2019-02-11T07:47:25.841Z,6.23
2019-02-11T07:49:53.548Z,7.43
2019-02-11T07:52:26.682Z,7.53
2019-02-11T07:54:50.678Z,5.10
2019-02-11T07:57:18.286Z,8.97
2019-02-11T07:59:45.855Z,7.63
2019-02-11T08:02:13.517Z,4.67
2019-02-11T08:04:41.092Z,4.80
2019-02-11T08:07:10.402Z,6.53
2019-02-11T08:09:38.141Z,5.17
2019-02-11T08:12:05.872Z,4.93
2019-02-11T08:14:33.570Z,5.77
2019-02-11T08:17:02.161Z,4.87
2019-02-11T08:19:29.774Z,4.70
2019-02-11T08:21:57.404Z,5.43
2019-02-11T08:24:25.127Z,6.03
2019-02-11T08:26:52.807Z,5.80
2019-02-11T08:29:20.513Z,6.50
2019-02-11T08:31:48.250Z,5.27
2019-02-11T08:34:15.946Z,5.70
2019-02-11T08:36:43.674Z,9.13
2019-02-11T08:39:11.685Z,8.63
2019-02-11T08:41:39.299Z,6.90
2019-02-11T08:44:06.940Z,6.93
2019-02-11T08:46:34.526Z,8.53
2019-02-11T08:49:02.124Z,6.83
2019-02-11T08:51:29.754Z,6.53
2019-02-11T08:53:57.413Z,6.00
2019-02-11T08:56:25.082Z,12.00
2019-02-11T08:58:52.749Z,5.50
2019-02-11T09:01:20.404Z,5.70
2019-02-11T09:03:48.067Z,7.93
2019-02-11T09:06:15.798Z,5.23
2019-02-11T09:08:43.501Z,7.27
2019-02-11T09:11:11.245Z,8.40
2019-02-11T09:13:38.915Z,9.67
2019-02-11T09:16:06.661Z,7.87
2019-02-11T09:18:34.400Z,8.57
2019-02-11T09:21:02.098Z,6.07
2019-02-11T09:23:29.786Z,10.07
2019-02-11T09:25:57.369Z,6.93
2019-02-11T09:28:26.053Z,7.70
2019-02-11T09:30:53.630Z,8.53
2019-02-11T09:33:21.180Z,9.47
2019-02-11T09:35:48.777Z,8.80
2019-02-11T09:38:16.507Z,6.80
2019-02-11T09:40:44.079Z,6.83
2019-02-11T09:43:11.663Z,8.30
2019-02-11T09:45:39.254Z,7.00
2019-02-11T09:48:06.884Z,7.43
2019-02-11T09:50:42.950Z,7.13
2019-02-11T09:53:10.592Z,8.57
2019-02-11T09:55:38.217Z,7.23
2019-02-11T09:58:05.908Z,10.33
2019-02-11T10:00:33.474Z,11.63
2019-02-11T10:03:01.106Z,10.60
2019-02-11T10:05:28.754Z,6.93
2019-02-11T10:07:57.541Z,6.13
2019-02-11T10:10:25.117Z,7.20
2019-02-11T10:12:52.777Z,7.57
2019-02-11T10:15:20.445Z,8.20
2019-02-11T10:17:48.067Z,8.00
2019-02-11T10:20:17.297Z,8.67
2019-02-11T10:22:44.908Z,7.83
2019-02-11T10:25:15.167Z,7.37
2019-02-11T10:27:42.776Z,7.40
2019-02-11T10:30:11.759Z,7.97
2019-02-11T10:32:40.552Z,8.30
2019-02-11T10:35:09.098Z,6.47
2019-02-11T10:37:36.671Z,5.47
2019-02-11T10:40:05.078Z,6.57
2019-02-11T10:42:32.656Z,4.70
2019-02-11T10:45:00.233Z,5.83
2019-02-11T10:47:27.791Z,4.30
2019-02-11T10:49:55.368Z,3.37
2019-02-11T10:52:22.911Z,3.40
2019-02-11T10:54:50.616Z,3.00
2019-02-11T10:57:18.494Z,2.70
2019-02-11T10:59:46.188Z,3.33
2019-02-11T11:02:13.965Z,3.63
2019-02-11T11:04:41.662Z,1.83
2019-02-11T11:07:09.386Z,1.30
2019-02-11T11:09:37.066Z,0.83
2019-02-11T11:12:04.848Z,0.60
2019-02-11T11:14:32.631Z,0.50
2019-02-11T11:17:03.139Z,0.57
2019-02-11T11:19:30.844Z,2.33
2019-02-11T11:21:59.153Z,0.60
2019-02-11T11:24:26.915Z,0.60
2019-02-11T11:26:54.687Z,0.50
2019-02-11T11:29:22.375Z,0.70
2019-02-11T11:31:49.916Z,0.50
2019-02-11T11:34:17.606Z,0.60
2019-02-11T11:36:45.219Z,0.50
2019-02-11T11:39:19.367Z,0.63
2019-02-11T11:41:46.970Z,0.77
2019-02-11T11:44:14.605Z,0.40
2019-02-11T11:46:47.175Z,0.53
2019-02-11T11:49:11.868Z,0.70
2019-02-11T11:51:40.634Z,0.50
2019-02-11T11:54:08.394Z,0.70
2019-02-11T11:56:36.006Z,1.30
2019-02-11T11:59:03.795Z,2.60
2019-02-11T12:01:31.485Z,0.60
2019-02-11T12:03:59.172Z,0.87
2019-02-11T12:06:26.942Z,0.50
2019-02-11T12:08:58.714Z,0.70
2019-02-11T12:11:24.202Z,1.00
2019-02-11T12:13:51.834Z,1.00
2019-02-11T12:16:19.443Z,0.80
2019-02-11T12:18:47.132Z,0.70
2019-02-11T12:21:14.763Z,0.60
2019-02-11T12:23:42.391Z,1.57
2019-02-11T12:26:10.043Z,0.63
2019-02-11T12:28:38.703Z,0.60
2019-02-11T12:31:06.835Z,0.50
2019-02-11T12:33:34.584Z,0.60
2019-02-11T12:36:02.254Z,0.50
2019-02-11T12:38:29.899Z,0.60
2019-02-11T12:40:57.500Z,1.97
2019-02-11T12:43:25.120Z,0.60
2019-02-11T12:45:52.708Z,0.57
2019-02-11T12:48:20.522Z,0.43
2019-02-11T12:50:48.242Z,1.63
2019-02-11T12:53:16.257Z,0.50
2019-02-11T12:55:43.995Z,0.50
2019-02-11T12:58:12.706Z,2.80
2019-02-11T13:00:40.512Z,0.67
2019-02-11T13:03:08.239Z,0.60
2019-02-11T13:05:44.803Z,0.67
2019-02-11T13:08:05.357Z,1.07
2019-02-11T13:10:32.972Z,0.53
2019-02-11T13:13:00.605Z,0.70
2019-02-11T13:15:56.470Z,0.40
2019-02-11T13:17:58.087Z,0.50
2019-02-11T13:20:27.449Z,0.60
2019-02-11T13:22:55.122Z,0.47
2019-02-11T13:25:22.822Z,0.50
2019-02-11T13:27:50.583Z,0.43
2019-02-11T13:30:19.241Z,0.73
2019-02-11T13:32:46.932Z,0.50
2019-02-11T13:35:14.713Z,0.70
2019-02-11T13:37:42.313Z,0.80
2019-02-11T13:40:11.225Z,1.00
2019-02-11T13:42:38.817Z,1.80
2019-02-11T13:45:10.736Z,1.17
2019-02-11T13:47:52.435Z,0.53
2019-02-11T13:50:08.820Z,0.70
2019-02-11T13:52:36.454Z,0.53
2019-02-11T13:55:04.464Z,1.40
2019-02-11T13:57:32.219Z,1.07
2019-02-11T13:59:59.858Z,2.60
2019-02-11T14:02:27.529Z,0.50
2019-02-11T14:04:55.124Z,1.13
2019-02-11T14:07:22.922Z,0.60
2019-02-11T14:09:50.490Z,0.60
2019-02-11T14:12:18.247Z,0.47
2019-02-11T14:14:45.792Z,3.43
2019-02-11T14:17:13.421Z,1.03
2019-02-11T14:19:41.103Z,0.50
2019-02-11T14:22:09.060Z,0.63
2019-02-11T14:24:36.998Z,1.00
2019-02-11T14:27:04.945Z,1.00
2019-02-11T14:29:32.949Z,1.03
2019-02-11T14:32:01.213Z,1.53
2019-02-11T14:34:28.908Z,0.60
2019-02-11T14:36:56.730Z,4.23
2019-02-11T14:39:24.989Z,1.23
2019-02-11T14:41:52.820Z,1.67
2019-02-11T14:44:20.677Z,0.60
2019-02-11T14:46:48.494Z,0.80
2019-02-11T14:49:16.312Z,0.70
2019-02-11T14:51:44.076Z,0.77
2019-02-11T14:54:11.833Z,0.83
2019-02-11T14:56:39.683Z,0.70
2019-02-11T14:59:07.395Z,0.67
2019-02-11T15:01:35.153Z,0.70
2019-02-11T15:04:02.839Z,0.57
2019-02-11T15:06:33.235Z,0.80
2019-02-11T15:09:00.992Z,1.83
2019-02-11T15:11:30.395Z,0.80
2019-02-11T15:13:58.097Z,0.80
2019-02-11T15:16:25.896Z,0.60
2019-02-11T15:18:53.540Z,0.70
2019-02-11T15:21:21.107Z,0.60
2019-02-11T15:23:48.781Z,0.83
2019-02-11T15:26:22.119Z,0.70
2019-02-11T15:28:49.757Z,0.83
2019-02-11T15:31:17.467Z,1.63
2019-02-11T15:33:45.187Z,0.77
2019-02-11T15:36:15.588Z,0.70
2019-02-11T15:38:43.250Z,0.67
2019-02-11T15:41:11.021Z,0.77
2019-02-11T15:43:38.713Z,0.80
2019-02-11T15:46:07.286Z,0.80
2019-02-11T15:48:42.601Z,1.57
2019-02-11T15:51:04.437Z,2.50
2019-02-11T15:53:32.138Z,3.80
2019-02-11T15:56:06.556Z,1.77
2019-02-11T15:58:29.538Z,1.30
2019-02-11T16:00:57.117Z,1.30
2019-02-11T16:03:24.732Z,1.00
2019-02-11T16:05:52.323Z,1.33
2019-02-11T16:08:20.121Z,0.90
2019-02-11T16:10:47.675Z,1.00
2019-02-11T16:13:15.325Z,0.70
2019-02-11T16:15:42.909Z,0.70
2019-02-11T16:18:10.590Z,0.80
2019-02-11T16:20:38.192Z,1.43
2019-02-11T16:23:06.887Z,0.70
2019-02-11T16:25:34.409Z,2.13
2019-02-11T16:28:02.102Z,1.47
2019-02-11T16:30:29.705Z,1.50
2019-02-11T16:32:57.462Z,2.60
2019-02-11T16:35:25.081Z,2.53
2019-02-11T16:37:52.734Z,0.90
2019-02-11T16:40:22.552Z,0.90
2019-02-11T16:42:50.305Z,1.80
2019-02-11T16:45:17.884Z,1.70
2019-02-11T16:47:45.648Z,1.60
2019-02-11T16:50:13.373Z,1.30
2019-02-11T16:52:41.019Z,1.37
2019-02-11T16:55:08.801Z,3.43
2019-02-11T16:57:37.517Z,1.10
2019-02-11T17:00:06.899Z,1.87
2019-02-11T17:02:34.593Z,0.93
2019-02-11T17:05:02.489Z,1.00
2019-02-11T17:07:30.229Z,1.07
2019-02-11T17:09:58.016Z,0.90
2019-02-11T17:12:25.839Z,1.17
2019-02-11T17:14:53.597Z,0.90
2019-02-11T17:17:21.311Z,0.90
2019-02-11T17:19:49.105Z,0.93
2019-02-11T17:22:16.846Z,0.90
2019-02-11T17:24:44.547Z,0.90
2019-02-11T17:27:12.237Z,1.13
2019-02-11T17:29:39.839Z,0.90
2019-02-11T17:32:07.411Z,0.90
2019-02-11T17:34:35.124Z,0.80
2019-02-11T17:37:02.722Z,2.30
2019-02-11T17:39:30.454Z,0.90
2019-02-11T17:41:58.467Z,3.53
2019-02-11T17:44:29.110Z,1.60
2019-02-11T17:46:56.757Z,1.00
2019-02-11T17:49:24.784Z,1.03
2019-02-11T17:51:53.464Z,0.80
2019-02-11T17:54:21.104Z,0.90
2019-02-11T17:56:48.737Z,0.80
2019-02-11T17:59:16.466Z,1.07
2019-02-11T18:01:44.225Z,0.90
2019-02-11T18:04:12.974Z,0.70
2019-02-11T18:06:40.761Z,0.70
2019-02-11T18:09:10.258Z,1.97
2019-02-11T18:11:39.536Z,0.83
2019-02-11T18:14:07.446Z,0.90
2019-02-11T18:16:35.097Z,0.90
2019-02-11T18:19:02.812Z,1.77
2019-02-11T18:21:30.502Z,0.80
2019-02-11T18:23:58.204Z,2.17
2019-02-11T18:26:27.106Z,0.80
2019-02-11T18:28:54.736Z,1.60
2019-02-11T18:31:22.492Z,0.97
2019-02-11T18:33:50.303Z,0.80
2019-02-11T18:36:18.355Z,0.80
2019-02-11T18:38:46.130Z,0.90
2019-02-11T18:41:13.829Z,0.80
2019-02-11T18:43:41.831Z,0.63
2019-02-11T18:46:09.429Z,0.80
2019-02-11T18:48:37.063Z,0.87
2019-02-11T18:51:04.714Z,1.00
2019-02-11T18:53:32.707Z,1.70
2019-02-11T18:56:00.388Z,1.00
2019-02-11T18:58:28.032Z,1.17
2019-02-11T19:00:55.708Z,0.80
2019-02-11T19:03:23.295Z,1.03
2019-02-11T19:05:50.974Z,0.80
2019-02-11T19:08:18.549Z,0.97
2019-02-11T19:10:46.218Z,1.43
2019-02-11T19:13:13.982Z,0.80
2019-02-11T19:15:41.714Z,1.10
2019-02-11T19:18:13.466Z,0.90
2019-02-11T19:20:42.116Z,0.90
2019-02-11T19:23:09.720Z,0.70
2019-02-11T19:25:37.352Z,0.83
2019-02-11T19:28:04.970Z,0.97
2019-02-11T19:30:32.557Z,0.80
2019-02-11T19:33:00.311Z,1.23
2019-02-11T19:35:27.912Z,0.93
2019-02-11T19:37:55.518Z,0.90
2019-02-11T19:40:23.115Z,0.70
2019-02-11T19:42:50.743Z,1.33
2019-02-11T19:45:18.723Z,0.80
2019-02-11T19:47:46.357Z,0.93
2019-02-11T19:50:14.602Z,0.90
2019-02-11T19:52:43.341Z,0.90
2019-02-11T19:55:11.180Z,1.60
2019-02-11T19:57:38.922Z,0.90
2019-02-11T20:00:10.009Z,2.00
2019-02-11T20:02:37.746Z,1.00
2019-02-11T20:05:06.186Z,1.50
2019-02-11T20:07:40.911Z,1.30
2019-02-11T20:10:10.083Z,0.80
2019-02-11T20:12:37.867Z,0.80
2019-02-11T20:15:07.456Z,1.43
2019-02-11T20:17:35.140Z,0.90
2019-02-11T20:20:02.772Z,1.07
2019-02-11T20:22:30.389Z,1.13
2019-02-11T20:24:57.976Z,1.20
2019-02-11T20:27:25.749Z,1.07
2019-02-11T20:29:53.355Z,0.80
2019-02-11T20:32:21.215Z,1.10
2019-02-11T20:34:48.953Z,1.30
2019-02-11T20:37:17.179Z,2.00
2019-02-11T20:39:45.561Z,4.43
2019-02-11T20:42:14.984Z,3.50
2019-02-11T20:44:42.858Z,2.47
2019-02-11T20:47:10.636Z,1.60
2019-02-11T20:49:38.410Z,3.67
2019-02-11T20:52:06.196Z,1.80
2019-02-11T20:54:34.066Z,1.63
2019-02-11T20:57:01.799Z,5.03
2019-02-11T20:59:29.368Z,2.10
2019-02-11T21:01:57.067Z,1.30
2019-02-11T21:04:24.623Z,1.43
2019-02-11T21:06:52.371Z,1.00
2019-02-11T21:09:22.514Z,1.00
2019-02-11T21:11:50.291Z,1.27
2019-02-11T21:14:17.870Z,1.40
2019-02-11T21:16:45.915Z,1.67
2019-02-11T21:19:13.531Z,1.53
2019-02-11T21:21:43.217Z,1.10
2019-02-11T21:24:10.823Z,1.30
2019-02-11T21:26:38.760Z,5.30
2019-02-11T21:29:06.647Z,1.60
2019-02-11T21:31:34.857Z,1.10
2019-02-11T21:34:03.013Z,1.13
2019-02-11T21:36:31.112Z,1.50
2019-02-11T21:38:58.837Z,2.80
2019-02-11T21:41:26.500Z,8.97
2019-02-11T21:43:54.315Z,15.97
2019-02-11T21:46:21.993Z,12.70
2019-02-11T21:48:51.474Z,7.97
2019-02-11T21:51:19.407Z,4.20
2019-02-11T21:53:47.122Z,2.20
2019-02-11T21:56:14.834Z,1.00
2019-02-11T21:58:42.582Z,1.50
2019-02-11T22:01:10.391Z,1.40
2019-02-11T22:03:39.179Z,0.93
2019-02-11T22:06:06.919Z,1.03
2019-02-11T22:08:35.061Z,0.90
2019-02-11T22:11:03.170Z,1.00
2019-02-11T22:13:32.239Z,0.97
2019-02-11T22:16:00.328Z,0.80
2019-02-11T22:18:28.384Z,0.90
2019-02-11T22:20:56.130Z,0.83
2019-02-11T22:23:23.760Z,0.80
2019-02-11T22:25:51.317Z,0.90
2019-02-11T22:28:19.134Z,0.80
2019-02-11T22:30:46.762Z,0.70
2019-02-11T22:33:15.546Z,0.80
2019-02-11T22:35:43.173Z,0.80
2019-02-11T22:38:10.725Z,0.70
2019-02-11T22:40:38.323Z,0.80
2019-02-11T22:43:06.174Z,0.80
2019-02-11T22:45:34.168Z,0.90
2019-02-11T22:48:01.778Z,1.03
2019-02-11T22:50:29.408Z,0.80
2019-02-11T22:52:57.235Z,0.70
2019-02-11T22:55:24.791Z,0.80
2019-02-11T22:57:52.842Z,0.80
2019-02-11T23:00:28.157Z,0.80
2019-02-11T23:02:55.909Z,0.90
2019-02-11T23:05:23.490Z,1.00
2019-02-11T23:07:51.207Z,0.80
2019-02-11T23:10:19.020Z,0.83
2019-02-11T23:12:46.687Z,0.80
2019-02-11T23:15:14.497Z,0.80
2019-02-11T23:17:42.172Z,1.30
2019-02-11T23:20:10.139Z,0.93
2019-02-11T23:22:38.147Z,0.80
2019-02-11T23:25:06.058Z,0.80
2019-02-11T23:27:34.197Z,0.87
2019-02-11T23:30:02.671Z,0.97
2019-02-11T23:32:30.338Z,0.90
2019-02-11T23:34:58.072Z,1.00
2019-02-11T23:37:25.706Z,1.07
2019-02-11T23:39:53.291Z,0.90
2019-02-11T23:42:20.962Z,2.50
2019-02-11T23:44:48.505Z,0.90
2019-02-11T23:47:16.278Z,1.07
2019-02-11T23:49:44.368Z,0.73
2019-02-11T23:52:12.097Z,0.80
2019-02-11T23:54:39.665Z,0.70
2019-02-11T23:57:07.451Z,0.80
2019-02-11T23:59:35.038Z,0.80
